Time;durP1;ratioP1;P1;durP2;ratioP2;P2;SDS_P1;SDS_P2;PMS_P1;PMS_P2;Temp;Humidity;BMP_temperature;BMP_pressure;BME280_temperature;BME280_humidity;BME280_pressure;Samples;Min_cycle;Max_cycle;Signal;HPM_P1;HPM_P2
2022/05/11 00:01:38;;;;;;;9.75;2.08;;;;;;;33.20;10.23;101136.16;4972367;28;20047;-63
2022/05/11 00:04:07;;;;;;;10.23;2.15;;;;;;;32.32;11.06;101141.63;4960953;28;20027;-61
2022/05/11 00:06:37;;;;;;;14.82;2.25;;;;;;;32.38;11.15;101134.38;4967303;28;20042;-62
2022/05/11 00:09:05;;;;;;;12.73;2.63;;;;;;;32.96;11.04;101135.06;4968206;28;20063;-61
2022/05/11 00:11:33;;;;;;;9.70;2.10;;;;;;;32.04;11.67;101153.66;4959603;28;20035;-59
2022/05/11 00:14:00;;;;;;;8.50;2.30;;;;;;;32.69;10.82;101154.44;4970898;28;20027;-60
2022/05/11 00:16:29;;;;;;;15.23;2.78;;;;;;;32.43;11.53;101158.50;4963519;28;20034;-60
2022/05/11 00:18:56;;;;;;;14.57;2.15;;;;;;;31.26;12.17;101150.69;4967558;28;20378;-60
2022/05/11 00:21:23;;;;;;;11.88;1.98;;;;;;;31.19;12.29;101150.63;4975025;28;20042;-60
2022/05/11 00:23:52;;;;;;;18.42;2.33;;;;;;;30.74;12.38;101164.03;4959097;28;20041;-61
2022/05/11 00:26:20;;;;;;;17.00;2.20;;;;;;;30.50;12.63;101145.78;4968340;28;20016;-60
2022/05/11 00:28:47;;;;;;;10.18;1.90;;;;;;;31.34;11.61;101160.72;4966346;28;20030;-59
2022/05/11 00:31:14;;;;;;;15.30;2.22;;;;;;;30.91;12.15;101165.34;4961414;28;20026;-61
2022/05/11 00:33:41;;;;;;;15.20;2.88;;;;;;;31.13;11.98;101166.22;4971715;28;20041;-61
2022/05/11 00:36:12;;;;;;;12.52;1.90;;;;;;;30.00;12.78;101172.63;4938104;29;20039;-61
2022/05/11 00:38:40;;;;;;;10.18;1.90;;;;;;;30.12;12.85;101191.97;4964733;28;20027;-63
2022/05/11 00:41:07;;;;;;;10.15;2.00;;;;;;;29.43;12.96;101188.78;4944689;29;20027;-62
2022/05/11 00:43:40;;;;;;;10.63;2.70;;;;;;;29.51;13.49;101175.72;4956583;28;20031;-62
2022/05/11 00:46:30;;;;;;;14.73;2.63;;;;;;;29.81;13.68;101181.25;4958969;28;20030;-60
2022/05/11 00:51:55;;;;;;;16.30;2.53;;;;;;;30.26;13.17;101180.09;4958734;28;20043;-62
2022/05/11 00:54:22;;;;;;;15.55;2.42;;;;;;;29.71;14.02;101175.13;4956201;28;20564;-60
2022/05/11 00:56:59;;;;;;;16.58;2.90;;;;;;;29.35;14.36;101171.09;4957531;28;20087;-63
2022/05/11 00:59:31;;;;;;;13.55;2.10;;;;;;;28.83;14.97;101164.41;4940978;29;20493;-61
2022/05/11 01:02:06;;;;;;;17.55;2.72;;;;;;;28.78;14.45;101183.50;4956216;28;20042;-62
2022/05/11 01:04:33;;;;;;;;;;;;;;;28.61;14.60;101175.66;4967327;28;20185;-62
2022/05/11 01:07:01;;;;;;;13.25;2.20;;;;;;;28.47;14.99;101177.06;4961825;28;19921;-62
2022/05/11 01:09:28;;;;;;;11.60;2.50;;;;;;;28.34;14.92;101180.41;4971286;28;20485;-61
2022/05/11 01:11:59;;;;;;;10.30;2.20;;;;;;;28.54;15.06;101171.56;4955323;28;20120;-60
2022/05/11 01:14:31;;;;;;;24.45;4.70;;;;;;;28.48;14.79;101183.44;4945614;28;20039;-60
2022/05/11 01:16:59;;;;;;;8.15;1.77;;;;;;;27.59;15.78;101179.03;4955660;28;20039;-61
2022/05/11 01:19:32;;;;;;;14.18;2.95;;;;;;;28.47;15.04;101163.06;4936220;29;20031;-60
2022/05/11 01:22:16;;;;;;;11.90;2.10;;;;;;;27.56;15.69;101176.97;4955402;28;20031;-60
2022/05/11 01:24:46;;;;;;;12.55;3.88;;;;;;;28.09;15.13;101183.59;4955437;28;20043;-59
2022/05/11 01:27:25;;;;;;;15.00;3.38;;;;;;;27.65;16.12;101178.41;4968267;28;20074;-59
2022/05/11 01:29:53;;;;;;;16.75;2.97;;;;;;;27.53;16.22;101172.94;4958781;28;20494;-60
2022/05/11 01:32:21;;;;;;;10.20;2.50;;;;;;;27.27;16.23;101203.50;4958441;28;20019;-61
2022/05/11 01:35:03;;;;;;;11.32;2.95;;;;;;;27.40;16.13;101171.47;4964508;28;20039;-61
2022/05/11 01:37:32;;;;;;;11.52;2.70;;;;;;;27.08;16.27;101193.13;4957664;28;20063;-60
2022/05/11 01:39:58;;;;;;;14.23;4.10;;;;;;;27.31;16.53;101179.28;4943055;28;20531;-61
2022/05/11 01:42:25;;;;;;;22.17;6.10;;;;;;;27.38;16.49;101177.44;4949652;29;20058;-61
2022/05/11 01:44:52;;;;;;;17.85;5.80;;;;;;;27.32;16.54;101178.91;4965651;28;20039;-61
2022/05/11 01:47:19;;;;;;;24.52;7.65;;;;;;;27.10;16.67;101171.25;4959211;28;20031;-61
2022/05/11 01:49:46;;;;;;;22.48;6.32;;;;;;;26.88;17.19;101188.66;4970816;28;20092;-61
2022/05/11 01:52:12;;;;;;;19.23;4.63;;;;;;;26.44;17.51;101178.50;4972262;28;20019;-61
2022/05/11 01:54:39;;;;;;;29.75;4.25;;;;;;;26.27;17.73;101180.84;4947395;28;20416;-62
2022/05/11 01:57:06;;;;;;;27.38;4.90;;;;;;;26.15;17.50;101188.09;4968270;28;20166;-62
2022/05/11 01:59:33;;;;;;;20.67;3.42;;;;;;;26.08;17.98;101181.56;4959239;28;20043;-63
2022/05/11 02:01:59;;;;;;;22.25;3.53;;;;;;;25.97;17.97;101178.47;4970564;28;20137;-62
2022/05/11 02:09:57;;;;;;;18.85;3.60;;;;;;;25.55;19.13;101192.03;4941459;28;20085;-61
2022/05/11 02:12:24;;;;;;;23.65;4.00;;;;;;;25.41;19.22;101186.88;4966835;28;20015;-61
2022/05/11 02:14:51;;;;;;;23.27;4.40;;;;;;;25.32;19.28;101194.56;4965220;28;20481;-61
2022/05/11 02:17:20;;;;;;;30.38;5.70;;;;;;;25.09;19.81;101185.91;4959087;28;20055;-60
2022/05/11 02:19:47;;;;;;;37.00;7.05;;;;;;;24.98;19.68;101188.38;4970588;28;20389;-61
2022/05/11 02:22:14;;;;;;;49.55;8.07;;;;;;;24.81;20.10;101196.97;4971264;28;20035;-61
2022/05/11 02:24:41;;;;;;;34.20;7.68;;;;;;;24.67;20.33;101202.06;4964309;28;20019;-62
2022/05/11 02:27:08;;;;;;;51.70;7.32;;;;;;;24.77;19.23;101209.91;4956537;28;20232;-61
2022/05/11 02:29:34;;;;;;;71.47;8.88;;;;;;;24.59;19.43;101191.88;4957738;28;20106;-60
2022/05/11 02:32:02;;;;;;;68.00;9.60;;;;;;;24.48;19.71;101197.09;4969655;28;20054;-60
2022/05/11 02:37:14;;;;;;;53.15;8.38;;;;;;;24.33;19.76;101195.81;4959733;28;20043;-60
2022/05/11 02:39:41;;;;;;;78.55;7.72;;;;;;;24.19;20.06;101202.81;4953144;28;20043;-61
2022/05/11 02:42:08;;;;;;;51.40;7.88;;;;;;;24.08;20.10;101189.41;4954899;28;20031;-61
2022/05/11 02:44:34;;;;;;;79.70;6.68;;;;;;;23.95;19.99;101187.75;4953798;28;20063;-62
2022/05/11 02:47:01;;;;;;;92.45;8.23;;;;;;;23.86;20.25;101189.00;4954993;28;20043;-61
2022/05/11 02:49:28;;;;;;;66.85;8.35;;;;;;;23.81;20.40;101215.81;4970006;28;20035;-60
2022/05/11 02:51:55;;;;;;;54.92;7.13;;;;;;;23.61;20.41;101194.47;4967491;28;20030;-60
2022/05/11 02:54:23;;;;;;;65.47;8.00;;;;;;;23.51;20.32;101201.22;4966298;28;20035;-61
2022/05/11 02:56:49;;;;;;;99.60;10.68;;;;;;;23.47;20.35;101186.41;4946207;28;20031;-62
2022/05/11 02:59:16;;;;;;;117.32;10.45;;;;;;;23.34;20.14;101190.31;4960030;28;20137;-61
2022/05/11 03:01:43;;;;;;;127.90;12.52;;;;;;;23.38;19.57;101195.97;4969822;28;20090;-61
2022/05/11 03:04:09;;;;;;;126.43;12.73;;;;;;;23.27;19.42;101203.06;4956223;28;20054;-61
2022/05/11 03:06:36;;;;;;;109.40;11.98;;;;;;;23.28;19.22;101196.38;4968676;28;20035;-60
2022/05/11 03:09:03;;;;;;;95.22;10.95;;;;;;;23.06;19.40;101206.66;4969729;28;20493;-61
2022/05/11 03:11:31;;;;;;;84.95;9.50;;;;;;;23.09;19.12;101200.44;4944717;28;20039;-61
2022/05/11 03:13:58;;;;;;;75.00;8.15;;;;;;;22.92;18.96;101220.78;4973418;28;20023;-61
2022/05/11 03:16:24;;;;;;;79.32;8.35;;;;;;;22.82;19.17;101207.31;4970444;28;20035;-61
2022/05/11 03:18:51;;;;;;;107.20;10.52;;;;;;;22.76;18.92;101216.13;4950681;28;20477;-62
2022/05/11 03:21:25;;;;;;;106.85;9.63;;;;;;;22.74;18.78;101212.88;4969858;28;20308;-62
2022/05/11 03:23:52;;;;;;;94.57;8.57;;;;;;;22.63;18.65;101225.50;4974541;28;20117;-62
2022/05/11 03:26:19;;;;;;;92.55;8.73;;;;;;;22.58;18.67;101232.81;4963484;28;20042;-62
2022/05/11 03:28:46;;;;;;;94.28;8.93;;;;;;;22.52;18.76;101231.41;4967572;28;20058;-62
2022/05/11 03:31:13;;;;;;;113.57;9.82;;;;;;;22.39;19.00;101243.50;4970503;28;20030;-62
2022/05/11 03:36:26;;;;;;;69.50;7.40;;;;;;;22.31;18.88;101244.38;4969916;28;20082;-60
2022/05/11 03:38:53;;;;;;;57.28;7.07;;;;;;;22.39;18.72;101251.81;4950798;28;20059;-61
2022/05/11 03:41:20;;;;;;;63.97;7.47;;;;;;;22.27;18.96;101243.41;4962614;28;20109;-61
2022/05/11 03:43:46;;;;;;;61.10;6.40;;;;;;;22.28;18.84;101253.34;4971307;28;20055;-60
2022/05/11 03:46:13;;;;;;;38.35;6.22;;;;;;;22.23;18.78;101247.97;4954330;28;20050;-61
2022/05/11 03:48:40;;;;;;;55.13;6.90;;;;;;;22.20;18.86;101256.94;4948645;28;20504;-61
2022/05/11 03:51:07;;;;;;;64.90;6.40;;;;;;;22.19;18.78;101245.03;4947041;29;20035;-60
2022/05/11 03:53:36;;;;;;;43.22;6.30;;;;;;;22.24;18.68;101255.13;4973077;28;20086;-61
2022/05/11 03:56:03;;;;;;;54.13;7.88;;;;;;;22.19;18.55;101261.66;4928133;28;20517;-60
2022/05/11 03:58:30;;;;;;;63.55;7.82;;;;;;;22.03;18.88;101263.28;4968990;28;20027;-61
2022/05/11 04:00:57;;;;;;;34.17;4.60;;;;;;;22.17;18.44;101275.00;4967724;28;20074;-61
2022/05/11 04:03:23;;;;;;;54.25;6.07;;;;;;;22.18;18.36;101248.13;4944818;29;20027;-60
2022/05/11 04:05:50;;;;;;;58.65;7.18;;;;;;;22.17;18.51;101269.47;4972925;28;20031;-60
2022/05/11 04:08:17;;;;;;;54.97;7.80;;;;;;;22.02;19.05;101264.44;4945450;28;20130;-60
2022/05/11 04:10:44;;;;;;;51.38;6.95;;;;;;;22.08;19.09;101270.63;4966964;28;20023;-60
2022/05/11 04:13:11;;;;;;;47.40;5.90;;;;;;;21.99;19.06;101274.22;4969461;28;20035;-60
2022/05/11 04:15:38;;;;;;;54.97;6.10;;;;;;;21.97;18.88;101276.50;4970138;28;20034;-60
2022/05/11 04:18:06;;;;;;;66.35;7.88;;;;;;;21.89;18.95;101280.06;4959900;28;20066;-61
2022/05/11 04:20:32;;;;;;;75.43;7.07;;;;;;;21.88;19.17;101300.59;4968241;28;20042;-60
2022/05/11 04:22:59;;;;;;;63.92;7.07;;;;;;;21.84;19.69;101299.63;4972849;28;20066;-60
2022/05/11 04:25:26;;;;;;;51.90;7.22;;;;;;;21.77;19.64;101304.84;4961117;28;20030;-60
2022/05/11 04:27:53;;;;;;;52.00;6.18;;;;;;;21.74;19.51;101302.72;4972613;28;20046;-60
2022/05/11 04:30:22;;;;;;;49.67;6.22;;;;;;;21.68;19.55;101309.53;4962384;28;20038;-60
2022/05/11 04:32:49;;;;;;;40.78;5.28;;;;;;;21.63;20.00;101304.19;4966069;28;20478;-61
2022/05/11 04:35:15;;;;;;;45.00;5.55;;;;;;;21.54;20.70;101317.19;4969807;28;20142;-61
2022/05/11 04:37:42;;;;;;;38.42;5.05;;;;;;;21.45;21.23;101322.72;4959605;28;20517;-60
2022/05/11 04:40:11;;;;;;;36.28;4.43;;;;;;;21.28;21.78;101315.19;4971028;28;20042;-61
2022/05/11 04:42:38;;;;;;;39.53;5.80;;;;;;;21.19;22.17;101311.59;4964472;28;20019;-60
2022/05/11 04:45:05;;;;;;;66.30;6.65;;;;;;;21.18;22.13;101318.22;4972293;28;20038;-59
2022/05/11 04:47:32;;;;;;;35.22;4.53;;;;;;;21.01;22.36;101316.25;4959980;28;20074;-61
2022/05/11 04:49:59;;;;;;;31.73;4.82;;;;;;;20.93;22.62;101324.50;4972142;28;20038;-61
2022/05/11 04:52:25;;;;;;;28.33;4.43;;;;;;;20.92;22.61;101328.41;4967602;28;20030;-60
2022/05/11 04:54:52;;;;;;;26.05;4.15;;;;;;;20.80;22.75;101304.13;4964713;28;20043;-61
2022/05/11 04:57:21;;;;;;;20.17;3.83;;;;;;;20.75;22.73;101318.91;4952678;28;20046;-60
2022/05/11 04:59:49;;;;;;;28.67;5.68;;;;;;;20.73;22.68;101312.91;4959389;28;20177;-61
2022/05/11 05:02:19;;;;;;;27.77;4.18;;;;;;;20.65;22.90;101310.94;4969506;28;20047;-61
2022/05/11 05:04:46;;;;;;;31.13;5.35;;;;;;;20.51;23.19;101286.16;4955446;28;20067;-60
2022/05/11 05:07:13;;;;;;;26.08;4.63;;;;;;;20.54;23.38;101312.31;4968991;28;20031;-62
2022/05/11 05:09:41;;;;;;;26.95;4.45;;;;;;;20.43;24.08;101322.81;4959098;28;20040;-61
2022/05/11 05:12:10;;;;;;;20.90;3.53;;;;;;;20.40;24.32;101320.66;4970879;28;20019;-62
2022/05/11 05:14:37;;;;;;;24.70;3.67;;;;;;;20.31;24.39;101325.31;4963615;28;20070;-60
2022/05/11 05:17:06;;;;;;;17.33;3.38;;;;;;;20.36;24.15;101319.66;4963048;28;20115;-60
2022/05/11 05:19:33;;;;;;;20.95;3.30;;;;;;;20.31;24.19;101325.31;4971386;28;20504;-61
2022/05/11 05:22:02;;;;;;;14.02;2.80;;;;;;;20.26;24.23;101342.00;4951715;28;20042;-61
2022/05/11 05:24:30;;;;;;;14.00;3.20;;;;;;;20.28;24.03;101330.63;4967625;28;20023;-60
2022/05/11 05:26:58;;;;;;;14.13;2.67;;;;;;;20.30;23.76;101339.44;4966324;28;20041;-61
2022/05/11 05:32:12;;;;;;;12.88;2.22;;;;;;;20.15;23.84;101316.63;4945721;28;20041;-62
2022/05/11 05:34:39;;;;;;;18.48;2.92;;;;;;;20.12;24.10;101328.28;4948892;28;20086;-61
2022/05/11 05:37:05;;;;;;;14.82;2.60;;;;;;;20.12;23.65;101320.00;4950105;28;20481;-60
2022/05/11 05:39:32;;;;;;;13.85;2.40;;;;;;;20.10;23.56;101318.66;4958764;28;20396;-60
2022/05/11 05:42:00;;;;;;;14.32;2.40;;;;;;;20.10;23.56;101315.91;4953944;28;20147;-60
2022/05/11 05:44:30;;;;;;;14.27;2.97;;;;;;;20.05;23.20;101307.78;4961779;28;20110;-60
2022/05/11 05:47:05;;;;;;;14.82;3.75;;;;;;;19.97;23.39;101325.91;4963505;28;20453;-61
2022/05/11 05:49:32;;;;;;;16.67;3.05;;;;;;;19.88;24.33;101319.50;4970750;28;20039;-61
2022/05/11 05:52:01;;;;;;;11.50;2.50;;;;;;;19.78;24.86;101317.81;4961488;28;20031;-60
2022/05/11 05:54:32;;;;;;;15.15;2.75;;;;;;;19.71;24.79;101306.38;4966550;28;20170;-61
2022/05/11 05:57:00;;;;;;;12.63;2.40;;;;;;;19.70;24.05;101326.00;4966095;28;20034;-61
2022/05/11 05:59:26;;;;;;;21.92;2.95;;;;;;;19.66;23.84;101313.97;4959331;28;20046;-61
2022/05/11 06:01:53;;;;;;;18.73;3.13;;;;;;;19.64;23.54;101310.69;4967665;28;20156;-60
2022/05/11 06:04:20;;;;;;;16.88;2.80;;;;;;;19.64;23.40;101306.00;4960421;28;20490;-58
2022/05/11 06:06:47;;;;;;;19.45;2.85;;;;;;;19.68;23.02;101308.94;4956264;28;20035;-61
2022/05/11 06:09:14;;;;;;;16.88;2.85;;;;;;;19.73;22.33;101309.63;4954004;28;20027;-63
2022/05/11 06:11:41;;;;;;;14.27;2.70;;;;;;;19.73;21.93;101306.06;4954945;28;20023;-60
2022/05/11 06:14:07;;;;;;;16.02;2.88;;;;;;;19.82;21.33;101309.72;4954022;28;20024;-61
2022/05/11 06:16:34;;;;;;;19.55;2.88;;;;;;;19.76;20.98;101303.53;4937323;29;20019;-62
2022/05/11 06:19:02;;;;;;;8.40;2.25;;;;;;;19.80;20.46;101300.94;4954991;28;20039;-62
2022/05/11 06:21:29;;;;;;;16.27;3.75;;;;;;;19.84;19.77;101304.69;4937856;28;20031;-61
2022/05/11 06:23:56;;;;;;;15.95;2.70;;;;;;;19.75;20.33;101306.56;4955458;28;20027;-60
2022/05/11 06:26:23;;;;;;;16.00;2.60;;;;;;;19.55;23.37;101308.66;4936932;29;20035;-61
2022/05/11 06:28:50;;;;;;;18.83;3.22;;;;;;;19.21;25.49;101316.56;4954182;28;20031;-60
2022/05/11 06:31:17;;;;;;;17.83;3.50;;;;;;;18.97;26.50;101320.38;4953395;28;20036;-60
2022/05/11 06:33:46;;;;;;;29.35;3.67;;;;;;;18.70;27.29;101307.44;4938033;28;20423;-60
2022/05/11 06:36:13;;;;;;;27.58;3.63;;;;;;;18.51;28.36;101305.84;4954527;28;20051;-62
2022/05/11 06:38:40;;;;;;;25.42;4.00;;;;;;;18.36;28.09;101291.25;4937429;29;20119;-59
2022/05/11 06:41:09;;;;;;;27.00;3.80;;;;;;;18.26;28.49;101309.84;4954082;28;20036;-61
2022/05/11 06:43:35;;;;;;;22.23;3.70;;;;;;;18.24;28.00;101315.66;4937129;28;20102;-60
2022/05/11 06:46:02;;;;;;;18.25;3.05;;;;;;;18.21;27.97;101305.25;4954535;28;20090;-61
2022/05/11 06:48:29;;;;;;;13.82;2.55;;;;;;;18.17;28.18;101315.25;4954390;28;20433;-60
2022/05/11 06:50:56;;;;;;;11.38;2.25;;;;;;;18.20;27.79;101303.63;4954395;28;20034;-61
2022/05/11 06:53:22;;;;;;;14.00;1.95;;;;;;;18.16;27.60;101316.38;4954868;28;20521;-61
2022/05/11 07:01:20;;;;;;;15.02;1.75;;;;;;;17.79;28.35;101304.31;4953869;28;20429;-61
2022/05/11 07:03:47;;;;;;;9.73;1.52;;;;;;;17.74;28.44;101298.06;4937556;28;20371;-60
2022/05/11 07:06:13;;;;;;;7.85;1.20;;;;;;;17.62;28.27;101303.19;4954395;28;20426;-60
2022/05/11 07:08:44;;;;;;;6.75;1.30;;;;;;;17.55;28.53;101300.78;4954291;28;20163;-62
2022/05/11 07:13:57;;;;;;;12.60;1.40;;;;;;;17.44;28.66;101297.38;4954220;28;20065;-61
2022/05/11 07:16:25;;;;;;;7.03;1.40;;;;;;;17.39;28.81;101291.13;4954276;28;20090;-61
2022/05/11 07:18:53;;;;;;;8.50;1.20;;;;;;;17.38;29.17;101286.75;4954192;28;20047;-60
2022/05/11 07:21:19;;;;;;;13.82;1.48;;;;;;;17.29;29.04;101291.28;4954288;28;20058;-62
2022/05/11 07:23:46;;;;;;;10.85;1.70;;;;;;;17.29;29.50;101281.09;4956528;28;20051;-61
2022/05/11 07:26:13;;;;;;;9.52;1.38;;;;;;;17.22;29.75;101291.63;4951130;29;20106;-60
2022/05/11 07:28:40;;;;;;;9.48;1.50;;;;;;;17.13;30.09;101305.22;4945229;28;20061;-61
2022/05/11 07:31:07;;;;;;;22.02;2.63;;;;;;;17.09;30.24;101276.72;4960820;28;20023;-59
2022/05/11 07:33:34;;;;;;;6.97;1.83;;;;;;;17.09;30.16;101287.69;4952608;28;20035;-60
2022/05/11 07:36:01;;;;;;;12.05;1.83;;;;;;;17.17;29.92;101276.03;4941508;28;20027;-60
2022/05/11 07:38:27;;;;;;;9.70;1.40;;;;;;;17.28;29.43;101286.91;4966513;28;20101;-61
2022/05/11 07:40:54;;;;;;;14.43;2.15;;;;;;;17.32;29.39;101286.00;4964496;28;20023;-61
2022/05/11 07:43:21;;;;;;;15.57;1.67;;;;;;;17.18;29.99;101288.66;4958634;28;20031;-60
2022/05/11 07:45:47;;;;;;;10.30;1.63;;;;;;;17.22;29.66;101291.63;4969625;28;20035;-60
2022/05/11 07:48:14;;;;;;;16.23;2.05;;;;;;;17.19;29.76;101293.03;4959044;28;20088;-62
2022/05/11 07:50:41;;;;;;;9.50;1.60;;;;;;;17.15;29.75;101281.00;4964101;28;20034;-61
2022/05/11 07:53:08;;;;;;;11.80;1.85;;;;;;;17.18;29.91;101274.91;4968370;28;20050;-62
2022/05/11 07:55:36;;;;;;;7.47;1.70;;;;;;;17.07;30.39;101275.38;4976416;28;20065;-60
2022/05/11 08:00:48;;;;;;;15.20;2.10;;;;;;;17.01;30.01;101273.78;4966340;28;20034;-62
2022/05/11 08:03:15;;;;;;;11.02;2.05;;;;;;;17.00;30.16;101270.22;4970430;28;20039;-62
2022/05/11 08:05:42;;;;;;;7.10;1.88;;;;;;;17.05;29.74;101267.41;4943022;28;20062;-62
2022/05/11 08:08:09;;;;;;;9.75;1.98;;;;;;;17.06;29.42;101263.56;4971646;28;20516;-62
2022/05/11 08:10:42;;;;;;;14.15;2.30;;;;;;;17.03;29.42;101253.16;4964852;28;20023;-63
2022/05/11 08:13:09;;;;;;;7.07;1.52;;;;;;;17.05;28.88;101247.38;4963801;28;20046;-62
2022/05/11 08:15:40;;;;;;;9.77;1.73;;;;;;;17.18;28.33;101252.94;4972546;28;20031;-62
2022/05/11 08:18:07;;;;;;;9.38;1.52;;;;;;;17.21;27.70;101263.34;4961132;28;20035;-60
2022/05/11 08:20:38;;;;;;;8.68;2.00;;;;;;;17.31;27.46;101237.66;4968011;28;20031;-61
2022/05/11 08:23:06;;;;;;;6.57;1.50;;;;;;;17.28;27.10;101234.72;4940767;29;20036;-59
2022/05/11 08:25:35;;;;;;;4.25;1.27;;;;;;;17.32;26.73;101235.75;4972274;28;20041;-59
2022/05/11 08:28:03;;;;;;;9.23;1.60;;;;;;;17.34;26.44;101222.53;4927471;28;20559;-59
2022/05/11 08:33:23;;;;;;;7.28;1.55;;;;;;;17.42;26.16;101228.19;4970277;28;20037;-61
2022/05/11 08:36:04;;;;;;;5.22;1.30;;;;;;;17.36;26.35;101231.28;4959981;28;20043;-62
2022/05/11 08:38:43;;;;;;;4.35;1.30;;;;;;;17.31;27.17;101220.38;4931982;29;20027;-60
2022/05/11 08:41:28;;;;;;;7.45;1.48;;;;;;;17.21;27.76;101215.84;4962403;28;20039;-60
2022/05/11 08:44:21;;;;;;;5.63;1.40;;;;;;;17.15;27.32;101217.84;4959331;28;20036;-59
2022/05/11 08:47:15;;;;;;;7.80;1.30;;;;;;;17.22;27.13;101211.97;4962487;28;20047;-60
2022/05/11 08:49:52;;;;;;;3.90;1.15;;;;;;;17.22;26.94;101214.72;4971984;28;20385;-61
2022/05/11 08:52:27;;;;;;;5.35;1.50;;;;;;;17.11;27.79;101222.31;4961940;28;20525;-60
2022/05/11 08:55:12;;;;;;;5.25;1.45;;;;;;;17.06;28.58;101222.38;4975371;28;20038;-61
2022/05/11 08:57:41;;;;;;;9.32;1.45;;;;;;;16.79;29.59;101222.19;4959231;28;20035;-61
2022/05/11 09:00:10;;;;;;;10.80;1.45;;;;;;;16.78;30.18;101226.84;4970891;28;20035;-60
2022/05/11 09:02:58;;;;;;;9.15;1.40;;;;;;;16.62;31.35;101223.44;4963489;28;20051;-61
2022/05/11 09:05:28;;;;;;;5.88;1.60;;;;;;;16.41;31.42;101224.81;4960660;28;20099;-61
2022/05/11 09:07:56;;;;;;;6.88;1.60;;;;;;;16.49;31.54;101218.66;4971562;28;20058;-61
2022/05/11 09:10:44;;;;;;;7.20;1.40;;;;;;;16.41;31.98;101213.81;4944955;28;20038;-61
2022/05/11 09:13:14;;;;;;;5.07;1.80;;;;;;;16.46;31.32;101219.25;4962158;28;20386;-60
2022/05/11 09:15:55;;;;;;;7.35;1.30;;;;;;;16.34;31.51;101224.34;4951750;28;20494;-60
2022/05/11 09:18:31;;;;;;;5.80;1.65;;;;;;;16.42;31.41;101223.69;4961701;28;20045;-60
2022/05/11 09:21:01;;;;;;;7.03;1.65;;;;;;;16.34;31.69;101227.09;4956734;28;20051;-61
2022/05/11 09:23:36;;;;;;;11.65;1.60;;;;;;;16.21;32.33;101220.34;4955740;28;20035;-61
2022/05/11 09:26:11;;;;;;;11.70;1.70;;;;;;;16.08;32.40;101221.03;4943235;28;20504;-59
2022/05/11 09:28:41;;;;;;;5.28;1.30;;;;;;;16.17;31.55;101223.97;4965680;28;20097;-60
2022/05/11 09:31:16;;;;;;;7.80;1.65;;;;;;;16.32;30.59;101234.75;4967189;28;20027;-60
2022/05/11 09:33:57;;;;;;;6.88;1.50;;;;;;;16.17;30.88;101230.28;4958463;28;20391;-60
2022/05/11 09:36:36;;;;;;;9.27;1.42;;;;;;;16.11;30.67;101234.16;4966933;28;20031;-61
2022/05/11 09:39:17;;;;;;;5.97;1.45;;;;;;;16.26;29.12;101235.94;4967027;28;20039;-60
2022/05/11 09:41:55;;;;;;;7.05;1.45;;;;;;;16.41;28.71;101237.69;4958624;28;20078;-60
2022/05/11 09:44:25;;;;;;;8.30;1.60;;;;;;;16.44;28.75;101254.38;4971070;28;20023;-61
2022/05/11 09:46:54;;;;;;;7.53;1.60;;;;;;;16.60;28.30;101247.63;4963990;28;20062;-62
2022/05/11 09:49:21;;;;;;;8.27;1.65;;;;;;;16.49;29.12;101246.09;4969169;28;20453;-63
2022/05/11 09:51:50;;;;;;;10.98;1.85;;;;;;;16.45;29.58;101242.31;4941136;28;20039;-62
2022/05/11 09:54:48;;;;;;;6.65;1.40;;;;;;;16.39;30.10;101248.97;4974198;28;20070;-62
2022/05/11 09:57:27;;;;;;;9.13;1.48;;;;;;;16.23;30.74;101253.78;4960417;28;20046;-62
2022/05/11 10:00:33;;;;;;;10.52;1.60;;;;;;;16.11;30.00;101252.53;4970936;28;20450;-62
2022/05/11 10:03:04;;;;;;;8.43;1.90;;;;;;;16.19;30.24;101254.66;4966108;28;20129;-62
2022/05/11 10:05:33;;;;;;;9.73;1.83;;;;;;;16.25;30.52;101250.75;4959112;28;20288;-62
2022/05/11 10:08:12;;;;;;;9.98;1.50;;;;;;;16.13;31.28;101250.31;4942223;28;20045;-62
2022/05/11 10:10:46;;;;;;;7.60;1.65;;;;;;;16.09;31.38;101257.50;4965464;28;20036;-61
2022/05/11 10:13:26;;;;;;;5.77;1.60;;;;;;;15.91;32.75;101268.06;4967681;28;20458;-62
2022/05/11 10:21:53;;;;;;;8.40;1.15;;;;;;;15.73;32.27;101270.69;4958748;28;20027;-62
2022/05/11 10:24:29;;;;;;;3.67;1.20;;;;;;;15.67;32.26;101283.59;4958598;28;20492;-62
2022/05/11 10:27:09;;;;;;;7.25;1.23;;;;;;;15.54;33.39;101279.53;4962923;28;20569;-61
2022/05/11 10:29:45;;;;;;;4.82;1.45;;;;;;;15.47;33.49;101278.25;4970521;28;20031;-63
2022/05/11 10:32:18;;;;;;;7.40;1.40;;;;;;;15.43;33.22;101278.78;4959236;28;20034;-62
2022/05/11 10:34:54;;;;;;;5.07;1.30;;;;;;;15.35;33.91;101287.59;4964836;28;20036;-63
2022/05/11 10:37:36;;;;;;;3.83;1.30;;;;;;;15.25;34.65;101282.19;4971033;28;20045;-62
2022/05/11 10:40:25;;;;;;;4.40;1.50;;;;;;;15.23;34.67;101289.03;4944647;28;20057;-61
2022/05/11 10:43:26;;;;;;;7.18;1.83;;;;;;;15.10;35.04;101293.22;4965088;28;20035;-61
2022/05/11 10:46:13;;;;;;;7.35;1.30;;;;;;;15.14;34.96;101290.75;4969586;28;20129;-61
2022/05/11 10:48:48;;;;;;;9.68;1.52;;;;;;;15.06;36.24;101283.91;4963011;28;20043;-60
2022/05/11 10:51:49;;;;;;;3.95;1.38;;;;;;;15.00;35.12;101287.78;4960468;28;20039;-62
2022/05/11 10:54:52;;;;;;;5.93;1.25;;;;;;;15.15;34.56;101295.94;4966197;28;20035;-62
2022/05/11 10:57:31;;;;;;;14.60;1.60;;;;;;;15.09;34.69;101299.81;4959859;28;20040;-61
2022/05/11 11:00:03;;;;;;;4.97;1.65;;;;;;;15.04;34.13;101297.06;4970338;28;20435;-60
2022/05/11 11:02:49;;;;;;;9.65;1.55;;;;;;;15.06;34.71;101300.34;4961563;28;20118;-60
2022/05/11 11:05:27;;;;;;;;;;;;;;;15.03;35.45;101295.44;4960446;28;20050;-60
2022/05/11 11:08:21;;;;;;;9.70;1.70;;;;;;;14.94;35.89;101308.06;4970060;28;20365;-60
2022/05/11 11:10:53;;;;;;;5.95;1.70;;;;;;;14.90;35.66;101318.75;4963879;28;20113;-59
2022/05/11 11:13:54;;;;;;;13.45;1.67;;;;;;;14.68;36.13;101313.59;4959330;28;20094;-58
2022/05/11 11:16:32;;;;;;;9.70;1.88;;;;;;;14.78;36.43;101315.50;4947223;28;20031;-59
2022/05/11 11:18:59;;;;;;;12.80;1.50;;;;;;;14.79;35.31;101323.44;4962114;28;20122;-59
2022/05/11 11:21:27;;;;;;;7.43;1.70;;;;;;;14.80;35.05;101316.88;4968912;28;20043;-59
2022/05/11 11:24:10;;;;;;;5.75;1.40;;;;;;;14.75;34.85;101314.16;4965903;28;20403;-60
2022/05/11 11:27:15;;;;;;;8.98;1.40;;;;;;;14.69;34.62;101306.22;4966642;28;20094;-59
2022/05/11 11:30:16;;;;;;;9.88;1.95;;;;;;;14.60;34.42;101302.44;4861314;29;20504;-59
2022/05/11 11:33:13;;;;;;;7.03;1.90;;;;;;;14.68;33.60;101297.19;4831909;29;20053;-60
2022/05/11 11:35:41;;;;;;;;;;;;;;;14.63;33.56;101291.75;4942804;28;20476;-59
2022/05/11 11:38:09;;;;;;;8.32;1.63;;;;;;;14.58;32.98;101301.88;4972519;28;20321;-60
2022/05/11 11:40:37;;;;;;;8.85;1.98;;;;;;;14.56;32.44;101304.91;4965576;28;20042;-60
2022/05/11 11:43:40;;;;;;;9.77;1.73;;;;;;;14.47;32.28;101306.56;4964832;28;20042;-59
2022/05/11 11:46:08;;;;;;;8.23;1.92;;;;;;;14.51;31.17;101313.09;4961734;28;20027;-59
2022/05/11 11:48:38;;;;;;;14.40;1.83;;;;;;;14.52;29.88;101317.47;4951153;29;20501;-59
2022/05/11 11:51:09;;;;;;;8.55;1.77;;;;;;;14.48;29.72;101299.97;4969348;28;20031;-60
2022/05/11 11:53:41;;;;;;;9.02;1.83;;;;;;;14.44;30.03;101309.84;4968007;28;20058;-60
2022/05/11 11:56:25;;;;;;;8.10;1.70;;;;;;;14.32;29.79;101312.00;4972245;28;20039;-60
2022/05/11 11:59:09;;;;;;;9.45;1.88;;;;;;;14.31;30.04;101310.38;4950498;28;20093;-61
2022/05/11 12:01:46;;;;;;;4.82;1.60;;;;;;;14.28;30.00;101310.94;4960127;28;20059;-61
2022/05/11 12:04:24;;;;;;;5.57;1.58;;;;;;;14.33;29.41;101316.38;4971643;28;20047;-61
2022/05/11 12:15:26;;;;;;;7.57;1.88;;;;;;;14.41;26.58;101330.31;4970553;28;20452;-62
2022/05/11 12:17:53;;;;;;;5.32;1.90;;;;;;;14.43;26.37;101338.25;4943096;28;20102;-61
2022/05/11 12:20:21;;;;;;;8.15;1.88;;;;;;;14.29;26.70;101348.91;4970251;28;20046;-61
2022/05/11 12:22:57;;;;;;;9.55;1.85;;;;;;;14.38;25.82;101354.69;4964755;28;20035;-59